sensor_id;sensor_type;location;lat;lon;timestamp;temperature;humidity
66722;SHT31;53633;49.932;10.884;2024-02-21T00:02:20;8.40;79.89
66722;SHT31;53633;49.932;10.884;2024-02-21T00:04:47;8.41;79.94
66722;SHT31;53633;49.932;10.884;2024-02-21T00:07:18;8.45;79.78
66722;SHT31;53633;49.932;10.884;2024-02-21T00:09:47;8.45;79.76
66722;SHT31;53633;49.932;10.884;2024-02-21T00:12:13;8.48;79.78
66722;SHT31;53633;49.932;10.884;2024-02-21T00:14:42;8.45;79.62
66722;SHT31;53633;49.932;10.884;2024-02-21T00:17:09;8.48;79.73
66722;SHT31;53633;49.932;10.884;2024-02-21T00:19:36;8.44;79.59
66722;SHT31;53633;49.932;10.884;2024-02-21T00:22:04;8.44;79.62
66722;SHT31;53633;49.932;10.884;2024-02-21T00:24:30;8.45;79.60
66722;SHT31;53633;49.932;10.884;2024-02-21T00:26:59;8.45;79.63
66722;SHT31;53633;49.932;10.884;2024-02-21T00:29:26;8.44;79.60
66722;SHT31;53633;49.932;10.884;2024-02-21T00:31:53;8.44;79.72
66722;SHT31;53633;49.932;10.884;2024-02-21T00:34:21;8.45;79.74
66722;SHT31;53633;49.932;10.884;2024-02-21T00:36:48;8.45;79.65
66722;SHT31;53633;49.932;10.884;2024-02-21T00:39:15;8.41;79.81
66722;SHT31;53633;49.932;10.884;2024-02-21T00:41:42;8.42;79.87
66722;SHT31;53633;49.932;10.884;2024-02-21T00:44:10;8.42;80.02
66722;SHT31;53633;49.932;10.884;2024-02-21T00:46:38;8.41;80.09
66722;SHT31;53633;49.932;10.884;2024-02-21T00:49:06;8.36;80.02
66722;SHT31;53633;49.932;10.884;2024-02-21T00:51:33;8.44;79.87
66722;SHT31;53633;49.932;10.884;2024-02-21T00:54:00;8.44;79.86
66722;SHT31;53633;49.932;10.884;2024-02-21T00:56:27;8.41;79.97
66722;SHT31;53633;49.932;10.884;2024-02-21T00:58:54;8.51;79.89
66722;SHT31;53633;49.932;10.884;2024-02-21T01:01:23;8.47;79.87
66722;SHT31;53633;49.932;10.884;2024-02-21T01:03:51;8.44;79.96
66722;SHT31;53633;49.932;10.884;2024-02-21T01:06:21;8.44;80.05
66722;SHT31;53633;49.932;10.884;2024-02-21T01:08:48;8.42;79.94
66722;SHT31;53633;49.932;10.884;2024-02-21T01:11:17;8.41;80.00
66722;SHT31;53633;49.932;10.884;2024-02-21T01:13:45;8.40;80.18
66722;SHT31;53633;49.932;10.884;2024-02-21T01:16:12;8.38;80.20
66722;SHT31;53633;49.932;10.884;2024-02-21T01:18:41;8.40;80.23
66722;SHT31;53633;49.932;10.884;2024-02-21T01:21:09;8.44;80.17
66722;SHT31;53633;49.932;10.884;2024-02-21T01:23:36;8.48;80.09
66722;SHT31;53633;49.932;10.884;2024-02-21T01:26:04;8.45;80.12
66722;SHT31;53633;49.932;10.884;2024-02-21T01:28:31;8.44;80.31
66722;SHT31;53633;49.932;10.884;2024-02-21T01:30:59;8.47;80.26
66722;SHT31;53633;49.932;10.884;2024-02-21T01:33:26;8.48;80.28
66722;SHT31;53633;49.932;10.884;2024-02-21T01:35:55;8.47;80.31
66722;SHT31;53633;49.932;10.884;2024-02-21T01:38:22;8.47;80.31
66722;SHT31;53633;49.932;10.884;2024-02-21T01:40:49;8.42;80.31
66722;SHT31;53633;49.932;10.884;2024-02-21T01:43:17;8.38;80.45
66722;SHT31;53633;49.932;10.884;2024-02-21T01:45:49;8.41;80.56
66722;SHT31;53633;49.932;10.884;2024-02-21T01:48:17;8.38;80.65
66722;SHT31;53633;49.932;10.884;2024-02-21T01:50:45;8.41;80.68
66722;SHT31;53633;49.932;10.884;2024-02-21T01:53:23;8.44;80.74
66722;SHT31;53633;49.932;10.884;2024-02-21T01:55:51;8.44;80.56
66722;SHT31;53633;49.932;10.884;2024-02-21T01:58:20;8.44;80.70
66722;SHT31;53633;49.932;10.884;2024-02-21T02:00:48;8.41;80.77
66722;SHT31;53633;49.932;10.884;2024-02-21T02:03:15;8.47;80.67
66722;SHT31;53633;49.932;10.884;2024-02-21T02:05:43;8.44;80.67
66722;SHT31;53633;49.932;10.884;2024-02-21T02:08:12;8.50;80.64
66722;SHT31;53633;49.932;10.884;2024-02-21T02:10:41;8.51;80.59
66722;SHT31;53633;49.932;10.884;2024-02-21T02:13:08;8.48;80.62
66722;SHT31;53633;49.932;10.884;2024-02-21T02:15:39;8.48;80.68
66722;SHT31;53633;49.932;10.884;2024-02-21T02:18:06;8.48;80.71
66722;SHT31;53633;49.932;10.884;2024-02-21T02:20:33;8.52;80.68
66722;SHT31;53633;49.932;10.884;2024-02-21T02:23:05;8.45;80.76
66722;SHT31;53633;49.932;10.884;2024-02-21T02:25:35;8.48;80.83
66722;SHT31;53633;49.932;10.884;2024-02-21T02:28:02;8.48;80.82
66722;SHT31;53633;49.932;10.884;2024-02-21T02:30:32;8.50;80.75
66722;SHT31;53633;49.932;10.884;2024-02-21T02:32:59;8.47;80.78
66722;SHT31;53633;49.932;10.884;2024-02-21T02:35:26;8.44;80.96
66722;SHT31;53633;49.932;10.884;2024-02-21T02:37:54;8.44;80.88
66722;SHT31;53633;49.932;10.884;2024-02-21T02:40:21;8.47;80.81
66722;SHT31;53633;49.932;10.884;2024-02-21T02:42:50;8.48;80.92
66722;SHT31;53633;49.932;10.884;2024-02-21T02:45:19;8.50;80.94
66722;SHT31;53633;49.932;10.884;2024-02-21T02:47:46;8.50;80.88
66722;SHT31;53633;49.932;10.884;2024-02-21T02:50:13;8.47;80.95
66722;SHT31;53633;49.932;10.884;2024-02-21T02:52:40;8.47;80.97
66722;SHT31;53633;49.932;10.884;2024-02-21T02:55:08;8.51;80.85
66722;SHT31;53633;49.932;10.884;2024-02-21T02:57:35;8.45;81.01
66722;SHT31;53633;49.932;10.884;2024-02-21T03:00:04;8.47;81.08
66722;SHT31;53633;49.932;10.884;2024-02-21T03:02:33;8.45;81.16
66722;SHT31;53633;49.932;10.884;2024-02-21T03:05:00;8.45;81.10
66722;SHT31;53633;49.932;10.884;2024-02-21T03:07:28;8.45;81.01
66722;SHT31;53633;49.932;10.884;2024-02-21T03:09:55;8.48;80.86
66722;SHT31;53633;49.932;10.884;2024-02-21T03:12:31;8.42;80.89
66722;SHT31;53633;49.932;10.884;2024-02-21T03:14:58;8.45;80.95
66722;SHT31;53633;49.932;10.884;2024-02-21T03:17:26;8.42;81.17
66722;SHT31;53633;49.932;10.884;2024-02-21T03:19:54;8.41;81.98
66722;SHT31;53633;49.932;10.884;2024-02-21T03:22:21;8.30;82.84
66722;SHT31;53633;49.932;10.884;2024-02-21T03:24:49;8.26;83.40
66722;SHT31;53633;49.932;10.884;2024-02-21T03:27:16;8.22;84.11
66722;SHT31;53633;49.932;10.884;2024-02-21T03:29:47;8.30;83.89
66722;SHT31;53633;49.932;10.884;2024-02-21T03:32:14;8.24;84.24
66722;SHT31;53633;49.932;10.884;2024-02-21T03:34:42;8.24;84.45
66722;SHT31;53633;49.932;10.884;2024-02-21T03:37:09;8.22;84.79
66722;SHT31;53633;49.932;10.884;2024-02-21T03:39:36;8.22;84.82
66722;SHT31;53633;49.932;10.884;2024-02-21T03:42:03;8.26;84.67
66722;SHT31;53633;49.932;10.884;2024-02-21T03:44:31;8.27;84.67
66722;SHT31;53633;49.932;10.884;2024-02-21T03:46:59;8.26;84.99
66722;SHT31;53633;49.932;10.884;2024-02-21T03:49:26;8.23;85.03
66722;SHT31;53633;49.932;10.884;2024-02-21T03:51:56;8.23;85.30
66722;SHT31;53633;49.932;10.884;2024-02-21T03:54:23;8.13;85.43
66722;SHT31;53633;49.932;10.884;2024-02-21T03:56:50;8.16;85.46
66722;SHT31;53633;49.932;10.884;2024-02-21T03:59:17;8.13;85.64
66722;SHT31;53633;49.932;10.884;2024-02-21T04:01:44;8.17;85.62
66722;SHT31;53633;49.932;10.884;2024-02-21T04:04:11;8.14;85.48
66722;SHT31;53633;49.932;10.884;2024-02-21T04:06:46;8.07;85.57
66722;SHT31;53633;49.932;10.884;2024-02-21T04:09:14;8.09;85.70
66722;SHT31;53633;49.932;10.884;2024-02-21T04:11:41;8.06;85.81
66722;SHT31;53633;49.932;10.884;2024-02-21T04:14:08;7.99;85.87
66722;SHT31;53633;49.932;10.884;2024-02-21T04:16:35;7.96;86.05
66722;SHT31;53633;49.932;10.884;2024-02-21T04:19:02;7.97;86.27
66722;SHT31;53633;49.932;10.884;2024-02-21T04:21:29;7.97;86.28
66722;SHT31;53633;49.932;10.884;2024-02-21T04:23:56;7.93;86.17
66722;SHT31;53633;49.932;10.884;2024-02-21T04:26:27;7.95;86.13
66722;SHT31;53633;49.932;10.884;2024-02-21T04:28:54;7.87;86.08
66722;SHT31;53633;49.932;10.884;2024-02-21T04:31:21;7.89;86.30
66722;SHT31;53633;49.932;10.884;2024-02-21T04:33:48;7.90;86.18
66722;SHT31;53633;49.932;10.884;2024-02-21T04:36:17;7.82;86.17
66722;SHT31;53633;49.932;10.884;2024-02-21T04:38:51;7.74;86.41
66722;SHT31;53633;49.932;10.884;2024-02-21T04:41:18;7.66;86.55
66722;SHT31;53633;49.932;10.884;2024-02-21T04:43:47;7.65;86.86
66722;SHT31;53633;49.932;10.884;2024-02-21T04:46:14;7.68;87.11
66722;SHT31;53633;49.932;10.884;2024-02-21T04:48:42;7.69;87.02
66722;SHT31;53633;49.932;10.884;2024-02-21T04:51:11;7.66;86.98
66722;SHT31;53633;49.932;10.884;2024-02-21T04:53:38;7.66;87.06
66722;SHT31;53633;49.932;10.884;2024-02-21T04:56:06;7.68;87.10
66722;SHT31;53633;49.932;10.884;2024-02-21T04:58:33;7.69;87.08
66722;SHT31;53633;49.932;10.884;2024-02-21T05:01:05;7.65;87.16
66722;SHT31;53633;49.932;10.884;2024-02-21T05:03:32;7.62;87.01
66722;SHT31;53633;49.932;10.884;2024-02-21T05:05:59;7.58;87.10
66722;SHT31;53633;49.932;10.884;2024-02-21T05:08:27;7.57;87.35
66722;SHT31;53633;49.932;10.884;2024-02-21T05:10:54;7.57;87.20
66722;SHT31;53633;49.932;10.884;2024-02-21T05:13:21;7.54;87.10
66722;SHT31;53633;49.932;10.884;2024-02-21T05:15:49;7.51;87.19
66722;SHT31;53633;49.932;10.884;2024-02-21T05:18:22;7.52;87.20
66722;SHT31;53633;49.932;10.884;2024-02-21T05:20:51;7.48;87.21
66722;SHT31;53633;49.932;10.884;2024-02-21T05:23:19;7.48;87.38
66722;SHT31;53633;49.932;10.884;2024-02-21T05:25:45;7.47;87.38
66722;SHT31;53633;49.932;10.884;2024-02-21T05:28:14;7.40;87.47
66722;SHT31;53633;49.932;10.884;2024-02-21T05:30:41;7.40;87.45
66722;SHT31;53633;49.932;10.884;2024-02-21T05:33:08;7.38;87.39
66722;SHT31;53633;49.932;10.884;2024-02-21T05:35:36;7.31;87.32
66722;SHT31;53633;49.932;10.884;2024-02-21T05:38:04;7.24;87.61
66722;SHT31;53633;49.932;10.884;2024-02-21T05:40:32;7.21;87.70
66722;SHT31;53633;49.932;10.884;2024-02-21T05:42:59;7.14;87.79
66722;SHT31;53633;49.932;10.884;2024-02-21T05:45:26;7.13;87.73
66722;SHT31;53633;49.932;10.884;2024-02-21T05:47:53;7.06;87.89
66722;SHT31;53633;49.932;10.884;2024-02-21T05:50:20;7.03;87.95
66722;SHT31;53633;49.932;10.884;2024-02-21T05:52:51;7.00;88.01
66722;SHT31;53633;49.932;10.884;2024-02-21T05:55:18;7.03;88.15
66722;SHT31;53633;49.932;10.884;2024-02-21T05:57:47;7.07;88.19
66722;SHT31;53633;49.932;10.884;2024-02-21T06:00:15;7.11;88.11
66722;SHT31;53633;49.932;10.884;2024-02-21T06:02:42;7.14;88.03
66722;SHT31;53633;49.932;10.884;2024-02-21T06:05:11;7.19;88.00
66722;SHT31;53633;49.932;10.884;2024-02-21T06:07:39;7.23;87.94
66722;SHT31;53633;49.932;10.884;2024-02-21T06:10:13;7.31;87.78
66722;SHT31;53633;49.932;10.884;2024-02-21T06:12:40;7.32;87.55
66722;SHT31;53633;49.932;10.884;2024-02-21T06:15:08;7.32;87.39
66722;SHT31;53633;49.932;10.884;2024-02-21T06:17:35;7.35;87.54
66722;SHT31;53633;49.932;10.884;2024-02-21T06:20:03;7.37;87.57
66722;SHT31;53633;49.932;10.884;2024-02-21T06:22:30;7.41;87.53
66722;SHT31;53633;49.932;10.884;2024-02-21T06:24:57;7.50;87.40
66722;SHT31;53633;49.932;10.884;2024-02-21T06:27:26;7.51;87.31
66722;SHT31;53633;49.932;10.884;2024-02-21T06:30:00;7.54;87.21
66722;SHT31;53633;49.932;10.884;2024-02-21T06:32:32;7.57;87.12
66722;SHT31;53633;49.932;10.884;2024-02-21T06:34:59;7.64;86.94
66722;SHT31;53633;49.932;10.884;2024-02-21T06:37:31;7.68;86.88
66722;SHT31;53633;49.932;10.884;2024-02-21T06:40:00;7.71;86.78
66722;SHT31;53633;49.932;10.884;2024-02-21T06:42:29;7.71;86.81
66722;SHT31;53633;49.932;10.884;2024-02-21T06:44:59;7.78;86.57
66722;SHT31;53633;49.932;10.884;2024-02-21T06:47:26;7.78;86.49
66722;SHT31;53633;49.932;10.884;2024-02-21T06:49:55;7.81;86.42
66722;SHT31;53633;49.932;10.884;2024-02-21T06:52:24;7.82;86.41
66722;SHT31;53633;49.932;10.884;2024-02-21T06:54:51;7.83;86.23
66722;SHT31;53633;49.932;10.884;2024-02-21T06:57:19;7.99;85.88
66722;SHT31;53633;49.932;10.884;2024-02-21T06:59:56;8.03;85.63
66722;SHT31;53633;49.932;10.884;2024-02-21T07:02:23;8.09;85.49
66722;SHT31;53633;49.932;10.884;2024-02-21T07:04:52;8.14;85.40
66722;SHT31;53633;49.932;10.884;2024-02-21T07:07:23;8.29;85.08
66722;SHT31;53633;49.932;10.884;2024-02-21T07:09:52;8.44;84.79
66722;SHT31;53633;49.932;10.884;2024-02-21T07:12:19;8.44;84.25
66722;SHT31;53633;49.932;10.884;2024-02-21T07:14:49;8.34;84.44
66722;SHT31;53633;49.932;10.884;2024-02-21T07:17:35;8.27;84.86
66722;SHT31;53633;49.932;10.884;2024-02-21T07:20:08;8.29;85.02
66722;SHT31;53633;49.932;10.884;2024-02-21T07:22:35;8.12;85.13
66722;SHT31;53633;49.932;10.884;2024-02-21T07:25:02;8.09;85.51
66722;SHT31;53633;49.932;10.884;2024-02-21T07:27:32;8.13;85.67
66722;SHT31;53633;49.932;10.884;2024-02-21T07:30:01;8.16;85.65
66722;SHT31;53633;49.932;10.884;2024-02-21T07:32:28;8.23;85.60
66722;SHT31;53633;49.932;10.884;2024-02-21T07:35:00;8.27;85.38
66722;SHT31;53633;49.932;10.884;2024-02-21T07:37:31;8.34;85.08
66722;SHT31;53633;49.932;10.884;2024-02-21T07:40:00;8.38;84.93
66722;SHT31;53633;49.932;10.884;2024-02-21T07:42:37;8.50;84.67
66722;SHT31;53633;49.932;10.884;2024-02-21T07:45:07;8.62;84.46
66722;SHT31;53633;49.932;10.884;2024-02-21T07:47:40;8.65;83.92
66722;SHT31;53633;49.932;10.884;2024-02-21T07:50:09;8.65;83.73
66722;SHT31;53633;49.932;10.884;2024-02-21T07:52:42;8.72;83.45
66722;SHT31;53633;49.932;10.884;2024-02-21T07:55:09;8.75;83.34
66722;SHT31;53633;49.932;10.884;2024-02-21T07:57:36;8.76;83.69
66722;SHT31;53633;49.932;10.884;2024-02-21T08:00:11;8.75;83.21
66722;SHT31;53633;49.932;10.884;2024-02-21T08:02:38;8.83;83.08
66722;SHT31;53633;49.932;10.884;2024-02-21T08:05:13;9.00;82.86
66722;SHT31;53633;49.932;10.884;2024-02-21T08:07:40;9.06;82.62
66722;SHT31;53633;49.932;10.884;2024-02-21T08:10:11;9.03;82.17
66722;SHT31;53633;49.932;10.884;2024-02-21T08:12:38;9.10;81.93
66722;SHT31;53633;49.932;10.884;2024-02-21T08:15:05;9.23;81.88
66722;SHT31;53633;49.932;10.884;2024-02-21T08:17:32;9.36;81.70
66722;SHT31;53633;49.932;10.884;2024-02-21T08:20:03;9.37;81.62
66722;SHT31;53633;49.932;10.884;2024-02-21T08:22:37;9.37;81.38
66722;SHT31;53633;49.932;10.884;2024-02-21T08:25:05;9.33;81.59
66722;SHT31;53633;49.932;10.884;2024-02-21T08:27:33;9.24;81.64
66722;SHT31;53633;49.932;10.884;2024-02-21T08:30:01;9.26;81.71
66722;SHT31;53633;49.932;10.884;2024-02-21T08:32:29;9.10;82.10
66722;SHT31;53633;49.932;10.884;2024-02-21T08:34:57;9.12;82.12
66722;SHT31;53633;49.932;10.884;2024-02-21T08:37:24;9.15;82.11
66722;SHT31;53633;49.932;10.884;2024-02-21T08:40:06;9.17;81.86
66722;SHT31;53633;49.932;10.884;2024-02-21T08:45:16;9.17;81.93
66722;SHT31;53633;49.932;10.884;2024-02-21T08:47:45;9.15;81.97
66722;SHT31;53633;49.932;10.884;2024-02-21T08:50:15;9.15;81.97
66722;SHT31;53633;49.932;10.884;2024-02-21T08:52:54;9.19;82.03
66722;SHT31;53633;49.932;10.884;2024-02-21T08:55:24;9.17;81.95
66722;SHT31;53633;49.932;10.884;2024-02-21T08:57:54;9.20;82.03
66722;SHT31;53633;49.932;10.884;2024-02-21T09:00:27;9.17;82.16
66722;SHT31;53633;49.932;10.884;2024-02-21T09:02:57;9.22;82.13
66722;SHT31;53633;49.932;10.884;2024-02-21T09:05:26;9.23;82.05
66722;SHT31;53633;49.932;10.884;2024-02-21T09:07:53;9.36;82.01
66722;SHT31;53633;49.932;10.884;2024-02-21T09:10:25;9.41;82.02
66722;SHT31;53633;49.932;10.884;2024-02-21T09:12:56;9.47;81.64
66722;SHT31;53633;49.932;10.884;2024-02-21T09:15:23;9.48;81.35
66722;SHT31;53633;49.932;10.884;2024-02-21T09:17:55;9.55;81.03
66722;SHT31;53633;49.932;10.884;2024-02-21T09:20:23;9.68;80.74
66722;SHT31;53633;49.932;10.884;2024-02-21T09:22:52;9.68;80.11
66722;SHT31;53633;49.932;10.884;2024-02-21T09:25:33;9.71;80.23
66722;SHT31;53633;49.932;10.884;2024-02-21T09:28:02;9.81;79.93
66722;SHT31;53633;49.932;10.884;2024-02-21T09:30:32;10.01;79.22
66722;SHT31;53633;49.932;10.884;2024-02-21T09:33:02;10.12;78.64
66722;SHT31;53633;49.932;10.884;2024-02-21T09:35:29;10.14;78.63
66722;SHT31;53633;49.932;10.884;2024-02-21T09:37:57;10.10;78.47
66722;SHT31;53633;49.932;10.884;2024-02-21T09:40:26;10.19;78.51
66722;SHT31;53633;49.932;10.884;2024-02-21T09:43:01;10.34;78.40
66722;SHT31;53633;49.932;10.884;2024-02-21T09:45:34;10.43;77.76
66722;SHT31;53633;49.932;10.884;2024-02-21T09:48:30;10.43;77.30
66722;SHT31;53633;49.932;10.884;2024-02-21T09:51:08;10.50;77.26
66722;SHT31;53633;49.932;10.884;2024-02-21T09:53:43;10.47;77.34
66722;SHT31;53633;49.932;10.884;2024-02-21T09:56:29;10.72;76.39
66722;SHT31;53633;49.932;10.884;2024-02-21T09:58:57;10.88;75.92
66722;SHT31;53633;49.932;10.884;2024-02-21T10:01:35;10.89;75.50
66722;SHT31;53633;49.932;10.884;2024-02-21T10:04:03;11.11;74.92
66722;SHT31;53633;49.932;10.884;2024-02-21T10:06:34;11.22;74.67
66722;SHT31;53633;49.932;10.884;2024-02-21T10:09:02;11.20;74.75
66722;SHT31;53633;49.932;10.884;2024-02-21T10:11:31;11.33;74.18
66722;SHT31;53633;49.932;10.884;2024-02-21T10:14:06;11.40;73.57
66722;SHT31;53633;49.932;10.884;2024-02-21T10:16:34;11.39;73.33
66722;SHT31;53633;49.932;10.884;2024-02-21T10:19:04;11.36;73.54
66722;SHT31;53633;49.932;10.884;2024-02-21T10:21:31;11.37;73.14
66722;SHT31;53633;49.932;10.884;2024-02-21T10:23:59;11.46;73.28
66722;SHT31;53633;49.932;10.884;2024-02-21T10:26:27;11.39;72.91
66722;SHT31;53633;49.932;10.884;2024-02-21T10:28:54;11.37;72.92
66722;SHT31;53633;49.932;10.884;2024-02-21T10:31:27;11.53;73.22
66722;SHT31;53633;49.932;10.884;2024-02-21T10:33:58;11.60;72.90
66722;SHT31;53633;49.932;10.884;2024-02-21T10:36:28;11.64;72.41
66722;SHT31;53633;49.932;10.884;2024-02-21T10:38:59;11.59;72.82
66722;SHT31;53633;49.932;10.884;2024-02-21T10:41:26;11.77;72.21
66722;SHT31;53633;49.932;10.884;2024-02-21T10:43:56;11.78;72.36
66722;SHT31;53633;49.932;10.884;2024-02-21T10:46:27;11.78;72.29
66722;SHT31;53633;49.932;10.884;2024-02-21T10:49:03;11.63;71.45
66722;SHT31;53633;49.932;10.884;2024-02-21T10:51:43;11.66;71.99
66722;SHT31;53633;49.932;10.884;2024-02-21T10:54:31;11.63;72.35
66722;SHT31;53633;49.932;10.884;2024-02-21T10:57:03;11.74;71.33
66722;SHT31;53633;49.932;10.884;2024-02-21T10:59:32;11.43;71.62
66722;SHT31;53633;49.932;10.884;2024-02-21T11:02:01;11.50;71.35
66722;SHT31;53633;49.932;10.884;2024-02-21T11:04:34;11.50;70.75
66722;SHT31;53633;49.932;10.884;2024-02-21T11:07:03;11.60;71.25
66722;SHT31;53633;49.932;10.884;2024-02-21T11:09:34;11.67;71.20
66722;SHT31;53633;49.932;10.884;2024-02-21T11:12:03;11.69;71.49
66722;SHT31;53633;49.932;10.884;2024-02-21T11:14:30;11.80;70.85
66722;SHT31;53633;49.932;10.884;2024-02-21T11:17:00;11.84;70.34
66722;SHT31;53633;49.932;10.884;2024-02-21T11:19:29;11.98;70.14
66722;SHT31;53633;49.932;10.884;2024-02-21T11:21:58;12.11;69.88
66722;SHT31;53633;49.932;10.884;2024-02-21T11:24:32;12.09;68.62
66722;SHT31;53633;49.932;10.884;2024-02-21T11:27:11;12.08;68.25
66722;SHT31;53633;49.932;10.884;2024-02-21T11:29:45;11.78;68.52
66722;SHT31;53633;49.932;10.884;2024-02-21T11:32:21;11.51;68.71
66722;SHT31;53633;49.932;10.884;2024-02-21T11:35:01;11.51;68.94
66722;SHT31;53633;49.932;10.884;2024-02-21T11:37:32;11.54;69.17
66722;SHT31;53633;49.932;10.884;2024-02-21T11:40:01;11.57;69.45
66722;SHT31;53633;49.932;10.884;2024-02-21T11:42:31;11.61;69.67
66722;SHT31;53633;49.932;10.884;2024-02-21T11:45:00;11.53;69.43
66722;SHT31;53633;49.932;10.884;2024-02-21T11:47:28;11.39;69.56
66722;SHT31;53633;49.932;10.884;2024-02-21T11:49:58;11.50;69.12
66722;SHT31;53633;49.932;10.884;2024-02-21T11:52:32;11.59;69.61
66722;SHT31;53633;49.932;10.884;2024-02-21T11:55:00;11.64;69.46
66722;SHT31;53633;49.932;10.884;2024-02-21T11:57:27;11.61;69.08
66722;SHT31;53633;49.932;10.884;2024-02-21T11:59:58;11.71;68.98
66722;SHT31;53633;49.932;10.884;2024-02-21T12:02:29;11.80;68.99
66722;SHT31;53633;49.932;10.884;2024-02-21T12:04:58;11.95;68.28
66722;SHT31;53633;49.932;10.884;2024-02-21T12:07:29;11.82;68.22
66722;SHT31;53633;49.932;10.884;2024-02-21T12:09:59;12.04;68.07
66722;SHT31;53633;49.932;10.884;2024-02-21T12:12:26;12.09;67.54
66722;SHT31;53633;49.932;10.884;2024-02-21T12:14:56;11.94;67.82
66722;SHT31;53633;49.932;10.884;2024-02-21T12:17:23;12.08;67.21
66722;SHT31;53633;49.932;10.884;2024-02-21T12:19:50;12.22;67.19
66722;SHT31;53633;49.932;10.884;2024-02-21T12:22:19;12.28;66.72
66722;SHT31;53633;49.932;10.884;2024-02-21T12:24:48;12.36;66.54
66722;SHT31;53633;49.932;10.884;2024-02-21T12:27:16;12.42;66.86
66722;SHT31;53633;49.932;10.884;2024-02-21T12:29:43;12.37;65.68
66722;SHT31;53633;49.932;10.884;2024-02-21T12:32:11;12.30;66.24
66722;SHT31;53633;49.932;10.884;2024-02-21T12:34:39;12.24;66.71
66722;SHT31;53633;49.932;10.884;2024-02-21T12:37:23;12.21;66.66
66722;SHT31;53633;49.932;10.884;2024-02-21T12:39:51;12.42;66.57
66722;SHT31;53633;49.932;10.884;2024-02-21T12:42:18;12.43;66.46
66722;SHT31;53633;49.932;10.884;2024-02-21T12:44:53;12.49;66.08
66722;SHT31;53633;49.932;10.884;2024-02-21T12:47:21;12.37;65.70
66722;SHT31;53633;49.932;10.884;2024-02-21T12:49:48;12.30;66.03
66722;SHT31;53633;49.932;10.884;2024-02-21T12:52:16;12.25;65.24
66722;SHT31;53633;49.932;10.884;2024-02-21T12:54:46;12.28;65.48
66722;SHT31;53633;49.932;10.884;2024-02-21T12:57:14;12.33;65.10
66722;SHT31;53633;49.932;10.884;2024-02-21T12:59:44;12.28;64.57
66722;SHT31;53633;49.932;10.884;2024-02-21T13:02:12;12.19;64.03
66722;SHT31;53633;49.932;10.884;2024-02-21T13:04:39;12.25;64.50
66722;SHT31;53633;49.932;10.884;2024-02-21T13:07:06;12.35;65.08
66722;SHT31;53633;49.932;10.884;2024-02-21T13:09:39;12.43;64.72
66722;SHT31;53633;49.932;10.884;2024-02-21T13:12:09;12.36;64.22
66722;SHT31;53633;49.932;10.884;2024-02-21T13:14:36;12.29;64.40
66722;SHT31;53633;49.932;10.884;2024-02-21T13:17:03;12.46;64.71
66722;SHT31;53633;49.932;10.884;2024-02-21T13:19:31;12.45;64.37
66722;SHT31;53633;49.932;10.884;2024-02-21T13:21:59;12.47;64.74
66722;SHT31;53633;49.932;10.884;2024-02-21T13:24:26;12.53;64.77
66722;SHT31;53633;49.932;10.884;2024-02-21T13:26:54;12.47;63.96
66722;SHT31;53633;49.932;10.884;2024-02-21T13:29:22;12.57;64.38
66722;SHT31;53633;49.932;10.884;2024-02-21T13:31:51;12.53;64.33
66722;SHT31;53633;49.932;10.884;2024-02-21T13:34:20;12.59;64.51
66722;SHT31;53633;49.932;10.884;2024-02-21T13:36:47;12.64;64.31
66722;SHT31;53633;49.932;10.884;2024-02-21T13:39:15;12.54;64.80
66722;SHT31;53633;49.932;10.884;2024-02-21T13:41:43;12.52;64.31
66722;SHT31;53633;49.932;10.884;2024-02-21T13:44:10;12.42;64.79
66722;SHT31;53633;49.932;10.884;2024-02-21T13:46:39;12.54;64.35
66722;SHT31;53633;49.932;10.884;2024-02-21T13:49:06;12.53;63.57
66722;SHT31;53633;49.932;10.884;2024-02-21T13:51:33;12.39;63.80
66722;SHT31;53633;49.932;10.884;2024-02-21T13:54:02;12.42;64.10
66722;SHT31;53633;49.932;10.884;2024-02-21T13:56:29;12.47;63.86
66722;SHT31;53633;49.932;10.884;2024-02-21T13:58:57;12.54;63.51
66722;SHT31;53633;49.932;10.884;2024-02-21T14:01:27;12.59;63.83
66722;SHT31;53633;49.932;10.884;2024-02-21T14:03:55;12.56;64.31
66722;SHT31;53633;49.932;10.884;2024-02-21T14:06:22;12.60;64.14
66722;SHT31;53633;49.932;10.884;2024-02-21T14:08:49;12.59;64.44
66722;SHT31;53633;49.932;10.884;2024-02-21T14:11:19;12.53;64.04
66722;SHT31;53633;49.932;10.884;2024-02-21T14:13:47;12.46;64.20
66722;SHT31;53633;49.932;10.884;2024-02-21T14:16:16;12.54;64.43
66722;SHT31;53633;49.932;10.884;2024-02-21T14:18:43;12.57;64.31
66722;SHT31;53633;49.932;10.884;2024-02-21T14:21:12;12.49;63.57
66722;SHT31;53633;49.932;10.884;2024-02-21T14:23:42;12.42;63.74
66722;SHT31;53633;49.932;10.884;2024-02-21T14:26:09;12.46;63.86
66722;SHT31;53633;49.932;10.884;2024-02-21T14:28:37;12.50;64.23
66722;SHT31;53633;49.932;10.884;2024-02-21T14:31:04;12.32;63.54
66722;SHT31;53633;49.932;10.884;2024-02-21T14:33:36;12.33;63.48
66722;SHT31;53633;49.932;10.884;2024-02-21T14:36:04;12.37;62.90
66722;SHT31;53633;49.932;10.884;2024-02-21T14:38:33;12.24;62.96
66722;SHT31;53633;49.932;10.884;2024-02-21T14:41:00;12.26;63.14
66722;SHT31;53633;49.932;10.884;2024-02-21T14:43:32;12.26;63.50
66722;SHT31;53633;49.932;10.884;2024-02-21T14:46:07;12.24;62.65
66722;SHT31;53633;49.932;10.884;2024-02-21T14:48:35;12.19;62.91
66722;SHT31;53633;49.932;10.884;2024-02-21T14:51:05;12.24;63.31
66722;SHT31;53633;49.932;10.884;2024-02-21T14:53:37;12.21;63.49
66722;SHT31;53633;49.932;10.884;2024-02-21T14:56:14;12.15;63.44
66722;SHT31;53633;49.932;10.884;2024-02-21T14:58:44;12.15;63.69
66722;SHT31;53633;49.932;10.884;2024-02-21T15:01:11;12.18;63.89
66722;SHT31;53633;49.932;10.884;2024-02-21T15:03:43;12.01;63.29
66722;SHT31;53633;49.932;10.884;2024-02-21T15:06:14;11.95;63.48
66722;SHT31;53633;49.932;10.884;2024-02-21T15:09:06;11.97;63.61
66722;SHT31;53633;49.932;10.884;2024-02-21T15:11:42;11.91;63.69
66722;SHT31;53633;49.932;10.884;2024-02-21T15:14:12;11.98;63.98
66722;SHT31;53633;49.932;10.884;2024-02-21T15:16:45;11.87;63.82
66722;SHT31;53633;49.932;10.884;2024-02-21T15:19:22;11.89;64.11
66722;SHT31;53633;49.932;10.884;2024-02-21T15:21:50;11.82;64.40
66722;SHT31;53633;49.932;10.884;2024-02-21T15:24:25;11.85;64.81
66722;SHT31;53633;49.932;10.884;2024-02-21T15:26:53;11.88;64.72
66722;SHT31;53633;49.932;10.884;2024-02-21T15:29:20;11.81;64.75
66722;SHT31;53633;49.932;10.884;2024-02-21T15:31:47;11.80;65.08
66722;SHT31;53633;49.932;10.884;2024-02-21T15:34:14;11.80;65.46
66722;SHT31;53633;49.932;10.884;2024-02-21T15:36:42;11.71;65.49
66722;SHT31;53633;49.932;10.884;2024-02-21T15:39:12;11.71;66.30
66722;SHT31;53633;49.932;10.884;2024-02-21T15:41:41;11.69;66.00